Etusivu
METAR-TAF:

METAR-TAF

Lentoasemat :

Funafutin kansainvälinen lentoasema

Funafuti, Tuvalu

Leveyspiiri: 08-31S, Pituuspiiri: 179-13E, korkeus merenpinnasta: 1 m

Tämänhetkinen sää

Tämä raportti tehtiin 50 minuuttia sitten, kello 00.00 UTC
Tuuli 9 kn idästä/kaakosta
Lämpötila 31°C
Kosteus 75%
Ilmanpaine 1010 hPa
Näkyvyys 10 km tai enemmän
Muutamia pilviä 1900 ft:n korkeudessa, Kasvava cumulus-pilvi.

METAR: NGFU 220000Z 12009KT 9999 FEW019TCU 31/26 Q1010

Aika: 12:50 (00:50 UTC)

Sääennuste

Tämä raportti tehtiin 1 tunti ja 35 minuuttia sitten, kello 23.15 UTC
Ennuste voimassa 22. päivästä klo 00 UTC - 22. päivään klo 24 UTC
Tuuli 12 kn idästä/kaakosta
Näkyvyys 10 km tai enemmän
Hajanaisia pilviä 1800 ft:n korkeudessa

TAF: NGFU 212315Z 2200/2224 12012KT 9999 SCT018

Säähavainnot ja -ennusteet yli 4000 lentoasemalta (METAR- ja TAF-raportit).

Käytössä olevat sääasemat on merkitty karttaan keltaisilla ja punaisilla pisteillä.

Aseta hiiri pisteen päälle nähdäksesi sääaseman nimen.

Klikkaa sitten nähdäksesi säähavainnot ja -ennusteet.

Kartan vaihtaminen: klikkaa mustalla rastilla varustettuja vihreitä pisteitä, niin voit zoomata sisään; viivalla varustettua vihreää pistettä, niin voit zoomata ulos tai vihreitä nuolia, niin pääset viereisille kartoille.


METAR-TAF: